Terminal Aerodrome Forecast
Issued by NWS Missoula, MT

Home | Current Version | Previous Version | Text Only | Print | Product List | Glossary On
Versions: 1 2 3 4 5 6 7 8 9 10 11 12 13 14 15 16 17
000
FTUS45 KMSO 240500
TAFGPI
TAF
KGPI 240531Z 2406/2506 33008KT P6SM VCSH BKN070
     FM241800 21015G25KT P6SM BKN090
     FM242100 22022G30KT P6SM SCT090
     FM250300 22010KT P6SM SCT090=

USA.gov is the U.S. government's official web portal to all federal, state and local government web resources and services.